カーブル の空港の天気 - METARとTAF

カーブル国際空港 ( OAKB / KBL ) - アフガニスタン カーブル
飛行場実況気象(Metar)
観測時間07/29 06:20 AFT (07/29 01:50 UTC)
風向・風速南東 2m/s
視程8000m
天気現象
なし
気温23℃
湿度73%
気圧1009hPa
METAROAKB 290150Z 14003KT 8000 NSC 23/18 Q1009 RMK A2981 BLU BLU
過去の天気等 Google飛行場航空写真 Wunderground天気予報

過去48時間のMETAR

飛行場予報(TAF)
発表時間: 7/29 03:35 AFT (7/28 23:05 UTC)
予報対象時間: 29日4時 AFT ~ 30日4時 AFT
風向・風速不定 1m/s
視程8000m
なし
29日4時 AFT ~ 29日7時 AFT に一時的に
視程4000m
天気現象煙霧
29日8時 AFT ~ 29日10時 AFT に徐々に
風向・風速東南東 6m/s
少しの雲 雲底高度 3050m
29日14時 AFT ~ 29日19時 AFT に一時的に
風向・風速東北東 8m/s 瞬間風速 13m/s
29日22時 AFT ~ 30日24時 AFT に徐々に
視程10km以上
なし
TAF OAKB 282305Z 2900/2924 VRB02KT 8000 NSC
TEMPO 2900/2903 4000 HZ
BECMG 2904/2906 12012KT FEW100
TEMPO 2910/2915 07015G25KT
BECMG 2918/2920 CAVOK